Main page
METAR-TAF:

METAR-TAF

Airports :

Chautauqua County-Jamestown Airport

Jamestown, New York, United States

latitude: 42-09N, longitude: 079-16W, elevation: 1722 ft

Current weather observation

The report was made 13 minutes ago, at 21:56 UTC
Wind 9 mph from the North
Temperature 43°F
Humidity 39%
Pressure 29.91 in. Hg
Visibility: 10 miles
Clear sky

METAR: KJHW 012156Z AUTO 36008KT 10SM CLR 06/M07 A2991 RMK AO2 SLP146 T00561067

Time: 18:09 (22:09 UTC)

Forecast

The report was made 1 hour and 4 minutes ago, at 21:05 UTC
Forecast valid from 01 at 21 UTC to 02 at 18 UTC
Wind 14 mph from the North with gusts up to 23 mph
Visibility: 6 miles
Clear sky
From 02 at 0000 UTC
Wind 9 mph from the North/Northwest
Visibility: 6 miles
Scattered clouds at a height of 5000 ft
From 02 at 0300 UTC
Wind 7 mph from the West/Northwest
Visibility: 6 miles
Broken clouds at a height of 3500 ft

TAF: KJHW 012105Z 0121/0218 35012G20KT P6SM SKC FM020000 33008KT P6SM SCT050 FM020300 30006KT P6SM BKN035

Weather observations and forecasts of more than 4000 airports (METAR and TAF reports).

The available stations are represented by yellow and red dots on the map.

Hover mouse over dot to see the name of the station.

Then click to see weather observations and forecasts.

To change the map : click on the green buttons with a black cross to zoom in, on the green button with a dash to zoom out, or on the green arrows for adjacent maps.


METAR-TAF: